sensor_id;sensor_type;location;lat;lon;timestamp;P1;durP1;ratioP1;P2;durP2;ratioP2
52512;SDS011;38422;53.172;6.974;2023-11-22T00:00:40;11.88;;;6.90;;
52512;SDS011;38422;53.172;6.974;2023-11-22T00:03:06;14.88;;;7.43;;
52512;SDS011;38422;53.172;6.974;2023-11-22T00:05:31;12.02;;;6.30;;
52512;SDS011;38422;53.172;6.974;2023-11-22T00:07:57;11.23;;;6.20;;
52512;SDS011;38422;53.172;6.974;2023-11-22T00:10:23;13.32;;;6.45;;
52512;SDS011;38422;53.172;6.974;2023-11-22T00:12:48;12.50;;;6.53;;
52512;SDS011;38422;53.172;6.974;2023-11-22T00:15:14;11.43;;;6.40;;
52512;SDS011;38422;53.172;6.974;2023-11-22T00:17:43;11.45;;;6.93;;
52512;SDS011;38422;53.172;6.974;2023-11-22T00:20:10;10.65;;;6.30;;
52512;SDS011;38422;53.172;6.974;2023-11-22T00:22:36;11.77;;;6.35;;
52512;SDS011;38422;53.172;6.974;2023-11-22T00:25:02;11.30;;;6.20;;
52512;SDS011;38422;53.172;6.974;2023-11-22T00:27:28;12.30;;;7.30;;
52512;SDS011;38422;53.172;6.974;2023-11-22T00:29:57;13.65;;;6.93;;
52512;SDS011;38422;53.172;6.974;2023-11-22T00:32:23;14.10;;;7.18;;
52512;SDS011;38422;53.172;6.974;2023-11-22T00:34:50;14.20;;;7.53;;
52512;SDS011;38422;53.172;6.974;2023-11-22T00:37:17;13.25;;;6.72;;
52512;SDS011;38422;53.172;6.974;2023-11-22T00:39:43;13.53;;;6.80;;
52512;SDS011;38422;53.172;6.974;2023-11-22T00:42:10;11.05;;;6.28;;
52512;SDS011;38422;53.172;6.974;2023-11-22T00:44:35;13.40;;;6.80;;
52512;SDS011;38422;53.172;6.974;2023-11-22T00:47:01;13.65;;;7.00;;
52512;SDS011;38422;53.172;6.974;2023-11-22T00:49:27;11.63;;;6.45;;
52512;SDS011;38422;53.172;6.974;2023-11-22T00:51:53;13.07;;;7.47;;
52512;SDS011;38422;53.172;6.974;2023-11-22T00:54:19;14.57;;;7.63;;
52512;SDS011;38422;53.172;6.974;2023-11-22T00:56:45;14.68;;;8.13;;
52512;SDS011;38422;53.172;6.974;2023-11-22T00:59:14;15.80;;;7.57;;
52512;SDS011;38422;53.172;6.974;2023-11-22T01:01:40;12.45;;;7.00;;
52512;SDS011;38422;53.172;6.974;2023-11-22T01:04:06;12.10;;;7.22;;
52512;SDS011;38422;53.172;6.974;2023-11-22T01:06:32;15.38;;;8.45;;
52512;SDS011;38422;53.172;6.974;2023-11-22T01:08:58;16.60;;;8.45;;
52512;SDS011;38422;53.172;6.974;2023-11-22T01:11:24;13.35;;;7.82;;
52512;SDS011;38422;53.172;6.974;2023-11-22T01:13:50;14.00;;;8.00;;
52512;SDS011;38422;53.172;6.974;2023-11-22T01:16:16;14.90;;;7.88;;
52512;SDS011;38422;53.172;6.974;2023-11-22T01:18:41;13.82;;;7.90;;
52512;SDS011;38422;53.172;6.974;2023-11-22T01:21:08;13.68;;;7.55;;
52512;SDS011;38422;53.172;6.974;2023-11-22T01:23:33;12.23;;;7.00;;
52512;SDS011;38422;53.172;6.974;2023-11-22T01:26:00;12.82;;;7.20;;
52512;SDS011;38422;53.172;6.974;2023-11-22T01:28:26;12.20;;;7.20;;
52512;SDS011;38422;53.172;6.974;2023-11-22T01:30:52;13.02;;;7.40;;
52512;SDS011;38422;53.172;6.974;2023-11-22T01:33:20;11.52;;;7.10;;
52512;SDS011;38422;53.172;6.974;2023-11-22T01:35:46;11.50;;;7.20;;
52512;SDS011;38422;53.172;6.974;2023-11-22T01:38:12;13.13;;;6.57;;
52512;SDS011;38422;53.172;6.974;2023-11-22T01:40:47;14.63;;;7.85;;
52512;SDS011;38422;53.172;6.974;2023-11-22T01:43:13;13.80;;;7.15;;
52512;SDS011;38422;53.172;6.974;2023-11-22T01:45:40;13.95;;;7.13;;
52512;SDS011;38422;53.172;6.974;2023-11-22T01:48:06;13.15;;;7.30;;
52512;SDS011;38422;53.172;6.974;2023-11-22T01:50:32;11.40;;;6.90;;
52512;SDS011;38422;53.172;6.974;2023-11-22T01:52:58;11.73;;;6.60;;
52512;SDS011;38422;53.172;6.974;2023-11-22T01:55:25;12.27;;;6.70;;
52512;SDS011;38422;53.172;6.974;2023-11-22T01:57:51;11.82;;;6.45;;
52512;SDS011;38422;53.172;6.974;2023-11-22T02:00:16;12.63;;;7.18;;
52512;SDS011;38422;53.172;6.974;2023-11-22T02:02:44;13.13;;;7.22;;
52512;SDS011;38422;53.172;6.974;2023-11-22T02:05:10;12.00;;;7.10;;
52512;SDS011;38422;53.172;6.974;2023-11-22T02:07:37;13.73;;;6.93;;
52512;SDS011;38422;53.172;6.974;2023-11-22T02:10:05;11.80;;;6.93;;
52512;SDS011;38422;53.172;6.974;2023-11-22T02:12:32;13.05;;;7.30;;
52512;SDS011;38422;53.172;6.974;2023-11-22T02:14:58;11.90;;;7.55;;
52512;SDS011;38422;53.172;6.974;2023-11-22T02:17:24;13.27;;;7.55;;
52512;SDS011;38422;53.172;6.974;2023-11-22T02:19:50;14.10;;;6.82;;
52512;SDS011;38422;53.172;6.974;2023-11-22T02:22:17;13.88;;;7.13;;
52512;SDS011;38422;53.172;6.974;2023-11-22T02:24:42;11.32;;;6.35;;
52512;SDS011;38422;53.172;6.974;2023-11-22T02:27:08;12.13;;;6.93;;
52512;SDS011;38422;53.172;6.974;2023-11-22T02:29:34;11.85;;;7.15;;
52512;SDS011;38422;53.172;6.974;2023-11-22T02:31:59;11.48;;;6.82;;
52512;SDS011;38422;53.172;6.974;2023-11-22T02:34:25;11.90;;;7.00;;
52512;SDS011;38422;53.172;6.974;2023-11-22T02:36:51;13.35;;;6.63;;
52512;SDS011;38422;53.172;6.974;2023-11-22T02:39:17;13.05;;;6.72;;
52512;SDS011;38422;53.172;6.974;2023-11-22T02:41:43;13.90;;;7.50;;
52512;SDS011;38422;53.172;6.974;2023-11-22T02:44:09;11.82;;;7.30;;
52512;SDS011;38422;53.172;6.974;2023-11-22T02:46:36;14.05;;;7.35;;
52512;SDS011;38422;53.172;6.974;2023-11-22T02:49:01;11.75;;;6.95;;
52512;SDS011;38422;53.172;6.974;2023-11-22T02:51:27;12.52;;;7.30;;
52512;SDS011;38422;53.172;6.974;2023-11-22T02:53:53;11.77;;;6.43;;
52512;SDS011;38422;53.172;6.974;2023-11-22T02:56:19;15.57;;;6.82;;
52512;SDS011;38422;53.172;6.974;2023-11-22T02:58:46;12.83;;;6.90;;
52512;SDS011;38422;53.172;6.974;2023-11-22T03:01:11;11.95;;;6.85;;
52512;SDS011;38422;53.172;6.974;2023-11-22T03:03:37;14.07;;;7.20;;
52512;SDS011;38422;53.172;6.974;2023-11-22T03:06:03;11.57;;;7.28;;
52512;SDS011;38422;53.172;6.974;2023-11-22T03:08:29;13.48;;;6.57;;
52512;SDS011;38422;53.172;6.974;2023-11-22T03:10:55;13.57;;;6.57;;
52512;SDS011;38422;53.172;6.974;2023-11-22T03:13:21;11.95;;;6.68;;
52512;SDS011;38422;53.172;6.974;2023-11-22T03:15:47;11.55;;;6.82;;
52512;SDS011;38422;53.172;6.974;2023-11-22T03:18:12;10.75;;;6.25;;
52512;SDS011;38422;53.172;6.974;2023-11-22T03:20:39;13.48;;;6.70;;
52512;SDS011;38422;53.172;6.974;2023-11-22T03:23:04;12.77;;;7.07;;
52512;SDS011;38422;53.172;6.974;2023-11-22T03:25:30;11.60;;;7.38;;
52512;SDS011;38422;53.172;6.974;2023-11-22T03:27:56;11.02;;;6.35;;
52512;SDS011;38422;53.172;6.974;2023-11-22T03:30:22;12.55;;;7.55;;
52512;SDS011;38422;53.172;6.974;2023-11-22T03:32:48;11.80;;;6.90;;
52512;SDS011;38422;53.172;6.974;2023-11-22T03:35:14;13.50;;;7.30;;
52512;SDS011;38422;53.172;6.974;2023-11-22T03:37:41;14.45;;;7.97;;
52512;SDS011;38422;53.172;6.974;2023-11-22T03:40:07;14.50;;;7.60;;
52512;SDS011;38422;53.172;6.974;2023-11-22T03:42:37;12.47;;;7.17;;
52512;SDS011;38422;53.172;6.974;2023-11-22T03:45:04;14.95;;;8.32;;
52512;SDS011;38422;53.172;6.974;2023-11-22T03:47:31;13.05;;;7.60;;
52512;SDS011;38422;53.172;6.974;2023-11-22T03:49:58;13.13;;;7.60;;
52512;SDS011;38422;53.172;6.974;2023-11-22T03:52:24;13.55;;;7.88;;
52512;SDS011;38422;53.172;6.974;2023-11-22T03:54:52;14.27;;;7.68;;
52512;SDS011;38422;53.172;6.974;2023-11-22T03:57:18;15.07;;;8.07;;
52512;SDS011;38422;53.172;6.974;2023-11-22T03:59:43;13.98;;;7.75;;
52512;SDS011;38422;53.172;6.974;2023-11-22T04:02:09;13.88;;;7.43;;
52512;SDS011;38422;53.172;6.974;2023-11-22T04:04:36;13.35;;;8.05;;
52512;SDS011;38422;53.172;6.974;2023-11-22T04:07:02;16.60;;;8.00;;
52512;SDS011;38422;53.172;6.974;2023-11-22T04:09:28;15.43;;;8.00;;
52512;SDS011;38422;53.172;6.974;2023-11-22T04:11:54;16.10;;;8.60;;
52512;SDS011;38422;53.172;6.974;2023-11-22T04:14:20;15.07;;;8.05;;
52512;SDS011;38422;53.172;6.974;2023-11-22T04:16:46;14.25;;;7.70;;
52512;SDS011;38422;53.172;6.974;2023-11-22T04:19:12;15.55;;;8.05;;
52512;SDS011;38422;53.172;6.974;2023-11-22T04:21:38;13.63;;;8.02;;
52512;SDS011;38422;53.172;6.974;2023-11-22T04:24:04;14.50;;;7.88;;
52512;SDS011;38422;53.172;6.974;2023-11-22T04:26:31;14.02;;;7.38;;
52512;SDS011;38422;53.172;6.974;2023-11-22T04:28:56;13.15;;;7.32;;
52512;SDS011;38422;53.172;6.974;2023-11-22T04:31:23;12.73;;;7.63;;
52512;SDS011;38422;53.172;6.974;2023-11-22T04:33:49;13.90;;;7.60;;
52512;SDS011;38422;53.172;6.974;2023-11-22T04:36:15;13.43;;;7.43;;
52512;SDS011;38422;53.172;6.974;2023-11-22T04:38:41;13.48;;;7.60;;
52512;SDS011;38422;53.172;6.974;2023-11-22T04:41:07;13.20;;;7.63;;
52512;SDS011;38422;53.172;6.974;2023-11-22T04:43:33;16.17;;;7.85;;
52512;SDS011;38422;53.172;6.974;2023-11-22T04:45:59;14.60;;;7.50;;
52512;SDS011;38422;53.172;6.974;2023-11-22T04:48:25;15.15;;;7.90;;
52512;SDS011;38422;53.172;6.974;2023-11-22T04:50:50;11.45;;;6.90;;
52512;SDS011;38422;53.172;6.974;2023-11-22T04:53:16;13.85;;;7.13;;
52512;SDS011;38422;53.172;6.974;2023-11-22T04:55:42;14.85;;;7.60;;
52512;SDS011;38422;53.172;6.974;2023-11-22T04:58:08;13.07;;;6.88;;
52512;SDS011;38422;53.172;6.974;2023-11-22T05:00:34;12.75;;;6.97;;
52512;SDS011;38422;53.172;6.974;2023-11-22T05:02:59;13.00;;;6.97;;
52512;SDS011;38422;53.172;6.974;2023-11-22T05:05:25;13.65;;;7.25;;
52512;SDS011;38422;53.172;6.974;2023-11-22T05:07:51;14.77;;;8.10;;
52512;SDS011;38422;53.172;6.974;2023-11-22T05:10:16;14.38;;;7.95;;
52512;SDS011;38422;53.172;6.974;2023-11-22T05:12:43;16.80;;;7.85;;
52512;SDS011;38422;53.172;6.974;2023-11-22T05:15:09;13.18;;;7.22;;
52512;SDS011;38422;53.172;6.974;2023-11-22T05:17:35;15.80;;;8.45;;
52512;SDS011;38422;53.172;6.974;2023-11-22T05:20:01;14.90;;;8.25;;
52512;SDS011;38422;53.172;6.974;2023-11-22T05:22:27;14.75;;;7.65;;
52512;SDS011;38422;53.172;6.974;2023-11-22T05:24:53;12.15;;;7.03;;
52512;SDS011;38422;53.172;6.974;2023-11-22T05:27:18;17.35;;;8.88;;
52512;SDS011;38422;53.172;6.974;2023-11-22T05:29:44;15.23;;;8.45;;
52512;SDS011;38422;53.172;6.974;2023-11-22T05:32:10;15.57;;;8.88;;
52512;SDS011;38422;53.172;6.974;2023-11-22T05:34:36;17.95;;;9.35;;
52512;SDS011;38422;53.172;6.974;2023-11-22T05:37:02;19.10;;;10.88;;
52512;SDS011;38422;53.172;6.974;2023-11-22T05:39:30;18.38;;;10.30;;
52512;SDS011;38422;53.172;6.974;2023-11-22T05:41:56;17.20;;;9.82;;
52512;SDS011;38422;53.172;6.974;2023-11-22T05:44:22;17.30;;;10.05;;
52512;SDS011;38422;53.172;6.974;2023-11-22T05:46:47;17.67;;;9.65;;
52512;SDS011;38422;53.172;6.974;2023-11-22T05:49:13;16.50;;;9.75;;
52512;SDS011;38422;53.172;6.974;2023-11-22T05:51:39;15.05;;;8.38;;
52512;SDS011;38422;53.172;6.974;2023-11-22T05:54:04;15.45;;;8.77;;
52512;SDS011;38422;53.172;6.974;2023-11-22T05:56:31;18.98;;;8.95;;
52512;SDS011;38422;53.172;6.974;2023-11-22T05:58:57;16.33;;;8.95;;
52512;SDS011;38422;53.172;6.974;2023-11-22T06:01:24;15.35;;;8.20;;
52512;SDS011;38422;53.172;6.974;2023-11-22T06:03:51;15.23;;;8.25;;
52512;SDS011;38422;53.172;6.974;2023-11-22T06:06:18;13.63;;;8.43;;
52512;SDS011;38422;53.172;6.974;2023-11-22T06:08:46;14.10;;;7.70;;
52512;SDS011;38422;53.172;6.974;2023-11-22T06:11:12;14.98;;;8.30;;
52512;SDS011;38422;53.172;6.974;2023-11-22T06:13:40;16.38;;;8.90;;
52512;SDS011;38422;53.172;6.974;2023-11-22T06:16:07;14.23;;;8.55;;
52512;SDS011;38422;53.172;6.974;2023-11-22T06:18:34;18.65;;;8.77;;
52512;SDS011;38422;53.172;6.974;2023-11-22T06:21:05;15.15;;;8.25;;
52512;SDS011;38422;53.172;6.974;2023-11-22T06:23:34;15.38;;;8.32;;
52512;SDS011;38422;53.172;6.974;2023-11-22T06:26:00;16.63;;;8.00;;
52512;SDS011;38422;53.172;6.974;2023-11-22T06:28:25;15.73;;;8.25;;
52512;SDS011;38422;53.172;6.974;2023-11-22T06:30:51;18.30;;;8.68;;
52512;SDS011;38422;53.172;6.974;2023-11-22T06:33:18;16.92;;;9.05;;
52512;SDS011;38422;53.172;6.974;2023-11-22T06:35:43;19.83;;;10.55;;
52512;SDS011;38422;53.172;6.974;2023-11-22T06:38:09;19.33;;;9.75;;
52512;SDS011;38422;53.172;6.974;2023-11-22T06:40:35;17.33;;;9.32;;
52512;SDS011;38422;53.172;6.974;2023-11-22T06:43:01;17.15;;;9.65;;
52512;SDS011;38422;53.172;6.974;2023-11-22T06:45:29;16.67;;;9.30;;
52512;SDS011;38422;53.172;6.974;2023-11-22T06:47:56;18.80;;;10.75;;
52512;SDS011;38422;53.172;6.974;2023-11-22T06:50:23;20.77;;;11.37;;
52512;SDS011;38422;53.172;6.974;2023-11-22T06:52:49;16.75;;;9.80;;
52512;SDS011;38422;53.172;6.974;2023-11-22T06:55:15;17.80;;;10.15;;
52512;SDS011;38422;53.172;6.974;2023-11-22T06:57:41;17.98;;;10.65;;
52512;SDS011;38422;53.172;6.974;2023-11-22T07:00:07;19.98;;;10.65;;
52512;SDS011;38422;53.172;6.974;2023-11-22T07:05:03;19.25;;;10.77;;
52512;SDS011;38422;53.172;6.974;2023-11-22T07:07:33;20.73;;;11.60;;
52512;SDS011;38422;53.172;6.974;2023-11-22T07:09:58;20.27;;;10.52;;
52512;SDS011;38422;53.172;6.974;2023-11-22T07:12:24;21.70;;;11.10;;
52512;SDS011;38422;53.172;6.974;2023-11-22T07:14:51;20.88;;;11.50;;
52512;SDS011;38422;53.172;6.974;2023-11-22T07:17:17;24.95;;;11.77;;
52512;SDS011;38422;53.172;6.974;2023-11-22T07:19:43;24.45;;;11.60;;
52512;SDS011;38422;53.172;6.974;2023-11-22T07:22:15;19.70;;;11.32;;
52512;SDS011;38422;53.172;6.974;2023-11-22T07:24:44;23.50;;;11.63;;
52512;SDS011;38422;53.172;6.974;2023-11-22T07:27:11;22.95;;;12.15;;
52512;SDS011;38422;53.172;6.974;2023-11-22T07:29:38;23.25;;;12.80;;
52512;SDS011;38422;53.172;6.974;2023-11-22T07:32:05;23.67;;;12.35;;
52512;SDS011;38422;53.172;6.974;2023-11-22T07:34:33;21.42;;;11.70;;
52512;SDS011;38422;53.172;6.974;2023-11-22T07:36:59;23.35;;;11.88;;
52512;SDS011;38422;53.172;6.974;2023-11-22T07:39:25;24.63;;;12.48;;
52512;SDS011;38422;53.172;6.974;2023-11-22T07:41:54;24.20;;;12.50;;
52512;SDS011;38422;53.172;6.974;2023-11-22T07:44:23;22.67;;;12.80;;
52512;SDS011;38422;53.172;6.974;2023-11-22T07:46:49;24.63;;;12.93;;
52512;SDS011;38422;53.172;6.974;2023-11-22T07:49:17;25.70;;;13.07;;
52512;SDS011;38422;53.172;6.974;2023-11-22T07:51:44;27.13;;;13.75;;
52512;SDS011;38422;53.172;6.974;2023-11-22T07:54:10;25.05;;;13.75;;
52512;SDS011;38422;53.172;6.974;2023-11-22T07:56:40;25.23;;;13.65;;
52512;SDS011;38422;53.172;6.974;2023-11-22T07:59:09;25.15;;;13.07;;
52512;SDS011;38422;53.172;6.974;2023-11-22T08:01:38;26.63;;;14.00;;
52512;SDS011;38422;53.172;6.974;2023-11-22T08:04:04;25.60;;;13.15;;
52512;SDS011;38422;53.172;6.974;2023-11-22T08:06:31;27.70;;;14.05;;
52512;SDS011;38422;53.172;6.974;2023-11-22T08:08:58;30.67;;;14.75;;
52512;SDS011;38422;53.172;6.974;2023-11-22T08:11:27;24.77;;;13.65;;
52512;SDS011;38422;53.172;6.974;2023-11-22T08:13:53;27.55;;;14.38;;
52512;SDS011;38422;53.172;6.974;2023-11-22T08:16:22;26.63;;;13.48;;
52512;SDS011;38422;53.172;6.974;2023-11-22T08:18:48;23.80;;;12.85;;
52512;SDS011;38422;53.172;6.974;2023-11-22T08:21:14;25.88;;;13.55;;
52512;SDS011;38422;53.172;6.974;2023-11-22T08:23:39;25.92;;;13.43;;
52512;SDS011;38422;53.172;6.974;2023-11-22T08:26:05;25.55;;;12.90;;
52512;SDS011;38422;53.172;6.974;2023-11-22T08:28:33;24.80;;;13.38;;
52512;SDS011;38422;53.172;6.974;2023-11-22T08:30:59;24.13;;;13.65;;
52512;SDS011;38422;53.172;6.974;2023-11-22T08:33:26;24.73;;;12.38;;
52512;SDS011;38422;53.172;6.974;2023-11-22T08:35:51;24.92;;;13.05;;
52512;SDS011;38422;53.172;6.974;2023-11-22T08:38:23;24.38;;;12.55;;
52512;SDS011;38422;53.172;6.974;2023-11-22T08:40:50;24.30;;;13.25;;
52512;SDS011;38422;53.172;6.974;2023-11-22T08:43:16;23.80;;;13.13;;
52512;SDS011;38422;53.172;6.974;2023-11-22T08:45:41;30.55;;;13.85;;
52512;SDS011;38422;53.172;6.974;2023-11-22T08:48:09;21.65;;;12.80;;
52512;SDS011;38422;53.172;6.974;2023-11-22T08:50:35;24.88;;;13.27;;
52512;SDS011;38422;53.172;6.974;2023-11-22T08:53:00;24.02;;;12.70;;
52512;SDS011;38422;53.172;6.974;2023-11-22T08:55:26;23.38;;;13.00;;
52512;SDS011;38422;53.172;6.974;2023-11-22T08:57:52;31.95;;;15.45;;
52512;SDS011;38422;53.172;6.974;2023-11-22T09:00:18;27.98;;;13.63;;
52512;SDS011;38422;53.172;6.974;2023-11-22T09:02:53;23.75;;;12.30;;
52512;SDS011;38422;53.172;6.974;2023-11-22T09:05:20;24.08;;;13.52;;
52512;SDS011;38422;53.172;6.974;2023-11-22T09:07:46;24.33;;;12.25;;
52512;SDS011;38422;53.172;6.974;2023-11-22T09:10:12;27.23;;;12.70;;
52512;SDS011;38422;53.172;6.974;2023-11-22T09:12:39;23.02;;;12.38;;
52512;SDS011;38422;53.172;6.974;2023-11-22T09:15:09;23.50;;;12.77;;
52512;SDS011;38422;53.172;6.974;2023-11-22T09:17:37;24.23;;;12.57;;
52512;SDS011;38422;53.172;6.974;2023-11-22T09:20:14;24.70;;;13.10;;
52512;SDS011;38422;53.172;6.974;2023-11-22T09:22:45;23.25;;;12.85;;
52512;SDS011;38422;53.172;6.974;2023-11-22T09:27:48;24.13;;;13.40;;
52512;SDS011;38422;53.172;6.974;2023-11-22T09:30:16;24.60;;;12.82;;
52512;SDS011;38422;53.172;6.974;2023-11-22T09:35:32;23.35;;;13.20;;
52512;SDS011;38422;53.172;6.974;2023-11-22T09:40:27;25.52;;;13.43;;
52512;SDS011;38422;53.172;6.974;2023-11-22T09:42:54;26.73;;;13.80;;
52512;SDS011;38422;53.172;6.974;2023-11-22T09:45:21;22.23;;;12.57;;
52512;SDS011;38422;53.172;6.974;2023-11-22T09:47:47;26.23;;;13.52;;
52512;SDS011;38422;53.172;6.974;2023-11-22T09:50:14;22.63;;;12.80;;
52512;SDS011;38422;53.172;6.974;2023-11-22T09:52:46;23.75;;;13.07;;
52512;SDS011;38422;53.172;6.974;2023-11-22T09:55:24;21.33;;;12.18;;
52512;SDS011;38422;53.172;6.974;2023-11-22T09:57:53;21.92;;;12.30;;
52512;SDS011;38422;53.172;6.974;2023-11-22T10:00:19;23.52;;;12.68;;
52512;SDS011;38422;53.172;6.974;2023-11-22T10:02:47;19.60;;;11.32;;
52512;SDS011;38422;53.172;6.974;2023-11-22T10:05:13;20.92;;;11.25;;
52512;SDS011;38422;53.172;6.974;2023-11-22T10:07:39;20.25;;;11.40;;
52512;SDS011;38422;53.172;6.974;2023-11-22T10:10:05;25.92;;;12.27;;
52512;SDS011;38422;53.172;6.974;2023-11-22T10:12:31;22.52;;;10.95;;
52512;SDS011;38422;53.172;6.974;2023-11-22T10:15:10;20.23;;;11.75;;
52512;SDS011;38422;53.172;6.974;2023-11-22T10:17:37;20.02;;;11.13;;
52512;SDS011;38422;53.172;6.974;2023-11-22T10:20:03;21.05;;;10.80;;
52512;SDS011;38422;53.172;6.974;2023-11-22T10:22:29;24.35;;;11.40;;
52512;SDS011;38422;53.172;6.974;2023-11-22T10:24:58;20.75;;;10.88;;
52512;SDS011;38422;53.172;6.974;2023-11-22T10:27:26;19.40;;;10.57;;
52512;SDS011;38422;53.172;6.974;2023-11-22T10:29:52;19.38;;;10.43;;
52512;SDS011;38422;53.172;6.974;2023-11-22T10:32:17;21.83;;;10.63;;
52512;SDS011;38422;53.172;6.974;2023-11-22T10:34:43;21.25;;;10.68;;
52512;SDS011;38422;53.172;6.974;2023-11-22T10:37:09;19.27;;;10.13;;
52512;SDS011;38422;53.172;6.974;2023-11-22T10:39:36;19.63;;;11.18;;
52512;SDS011;38422;53.172;6.974;2023-11-22T10:42:03;17.55;;;9.32;;
52512;SDS011;38422;53.172;6.974;2023-11-22T10:44:33;19.83;;;10.23;;
52512;SDS011;38422;53.172;6.974;2023-11-22T10:46:59;16.33;;;8.45;;
52512;SDS011;38422;53.172;6.974;2023-11-22T10:49:25;20.15;;;8.85;;
52512;SDS011;38422;53.172;6.974;2023-11-22T10:51:52;18.85;;;9.90;;
52512;SDS011;38422;53.172;6.974;2023-11-22T10:54:19;16.13;;;8.93;;
52512;SDS011;38422;53.172;6.974;2023-11-22T10:56:46;17.90;;;8.23;;
52512;SDS011;38422;53.172;6.974;2023-11-22T10:59:21;23.40;;;8.32;;
52512;SDS011;38422;53.172;6.974;2023-11-22T11:01:51;13.75;;;7.78;;
52512;SDS011;38422;53.172;6.974;2023-11-22T11:04:19;13.32;;;7.63;;
52512;SDS011;38422;53.172;6.974;2023-11-22T11:07:00;15.88;;;7.43;;
52512;SDS011;38422;53.172;6.974;2023-11-22T11:11:58;15.43;;;7.75;;
52512;SDS011;38422;53.172;6.974;2023-11-22T11:14:24;13.57;;;7.18;;
52512;SDS011;38422;53.172;6.974;2023-11-22T11:16:52;13.43;;;7.40;;
52512;SDS011;38422;53.172;6.974;2023-11-22T11:19:19;13.27;;;7.82;;
52512;SDS011;38422;53.172;6.974;2023-11-22T11:21:47;15.63;;;7.60;;
52512;SDS011;38422;53.172;6.974;2023-11-22T11:24:13;15.32;;;7.68;;
52512;SDS011;38422;53.172;6.974;2023-11-22T11:26:40;12.90;;;7.82;;
52512;SDS011;38422;53.172;6.974;2023-11-22T11:29:05;13.93;;;6.90;;
52512;SDS011;38422;53.172;6.974;2023-11-22T11:31:33;12.80;;;6.80;;
52512;SDS011;38422;53.172;6.974;2023-11-22T11:34:07;14.98;;;7.22;;
52512;SDS011;38422;53.172;6.974;2023-11-22T11:36:33;12.75;;;7.18;;
52512;SDS011;38422;53.172;6.974;2023-11-22T11:39:05;13.93;;;6.75;;
52512;SDS011;38422;53.172;6.974;2023-11-22T11:41:39;12.43;;;6.63;;
52512;SDS011;38422;53.172;6.974;2023-11-22T11:44:09;10.50;;;6.25;;
52512;SDS011;38422;53.172;6.974;2023-11-22T11:46:37;12.27;;;6.45;;
52512;SDS011;38422;53.172;6.974;2023-11-22T11:49:05;11.88;;;6.38;;
52512;SDS011;38422;53.172;6.974;2023-11-22T11:51:35;12.00;;;5.78;;
52512;SDS011;38422;53.172;6.974;2023-11-22T11:54:02;10.98;;;5.90;;
52512;SDS011;38422;53.172;6.974;2023-11-22T11:56:28;11.15;;;6.15;;
52512;SDS011;38422;53.172;6.974;2023-11-22T11:58:56;10.25;;;5.45;;
52512;SDS011;38422;53.172;6.974;2023-11-22T12:01:27;11.02;;;5.40;;
52512;SDS011;38422;53.172;6.974;2023-11-22T12:03:54;10.57;;;6.18;;
52512;SDS011;38422;53.172;6.974;2023-11-22T12:06:20;11.18;;;5.45;;
52512;SDS011;38422;53.172;6.974;2023-11-22T12:08:46;11.50;;;5.75;;
52512;SDS011;38422;53.172;6.974;2023-11-22T12:11:12;10.05;;;5.60;;
52512;SDS011;38422;53.172;6.974;2023-11-22T12:13:43;10.48;;;5.85;;
52512;SDS011;38422;53.172;6.974;2023-11-22T12:16:15;11.10;;;5.68;;
52512;SDS011;38422;53.172;6.974;2023-11-22T12:18:44;10.52;;;5.95;;
52512;SDS011;38422;53.172;6.974;2023-11-22T12:21:12;10.90;;;6.07;;
52512;SDS011;38422;53.172;6.974;2023-11-22T12:23:39;10.65;;;5.80;;
52512;SDS011;38422;53.172;6.974;2023-11-22T12:26:11;11.32;;;5.75;;
52512;SDS011;38422;53.172;6.974;2023-11-22T12:28:39;12.20;;;6.10;;
52512;SDS011;38422;53.172;6.974;2023-11-22T12:31:11;10.25;;;5.55;;
52512;SDS011;38422;53.172;6.974;2023-11-22T12:33:42;8.45;;;5.22;;
52512;SDS011;38422;53.172;6.974;2023-11-22T12:36:10;8.52;;;5.32;;
52512;SDS011;38422;53.172;6.974;2023-11-22T12:38:40;10.40;;;5.45;;
52512;SDS011;38422;53.172;6.974;2023-11-22T12:41:06;19.77;;;7.47;;
52512;SDS011;38422;53.172;6.974;2023-11-22T12:43:32;21.33;;;8.43;;
52512;SDS011;38422;53.172;6.974;2023-11-22T12:46:02;10.18;;;5.70;;
52512;SDS011;38422;53.172;6.974;2023-11-22T12:48:29;14.93;;;5.90;;
52512;SDS011;38422;53.172;6.974;2023-11-22T12:50:55;10.32;;;5.90;;
52512;SDS011;38422;53.172;6.974;2023-11-22T12:53:22;12.40;;;6.18;;
52512;SDS011;38422;53.172;6.974;2023-11-22T12:55:51;8.88;;;5.72;;
52512;SDS011;38422;53.172;6.974;2023-11-22T12:58:18;13.13;;;5.63;;
52512;SDS011;38422;53.172;6.974;2023-11-22T13:00:45;12.20;;;6.70;;
52512;SDS011;38422;53.172;6.974;2023-11-22T13:03:12;9.55;;;5.00;;
52512;SDS011;38422;53.172;6.974;2023-11-22T13:05:42;9.27;;;5.00;;
52512;SDS011;38422;53.172;6.974;2023-11-22T13:08:09;7.78;;;4.75;;
52512;SDS011;38422;53.172;6.974;2023-11-22T13:10:50;8.70;;;4.78;;
52512;SDS011;38422;53.172;6.974;2023-11-22T13:13:23;9.50;;;4.80;;
52512;SDS011;38422;53.172;6.974;2023-11-22T13:15:50;8.75;;;4.47;;
52512;SDS011;38422;53.172;6.974;2023-11-22T13:18:17;10.07;;;5.60;;
52512;SDS011;38422;53.172;6.974;2023-11-22T13:20:43;9.13;;;4.97;;
52512;SDS011;38422;53.172;6.974;2023-11-22T13:23:10;8.55;;;4.63;;
52512;SDS011;38422;53.172;6.974;2023-11-22T13:25:37;9.23;;;5.10;;
52512;SDS011;38422;53.172;6.974;2023-11-22T13:28:03;9.30;;;4.78;;
52512;SDS011;38422;53.172;6.974;2023-11-22T13:30:30;11.02;;;4.80;;
52512;SDS011;38422;53.172;6.974;2023-11-22T13:32:57;8.20;;;4.90;;
52512;SDS011;38422;53.172;6.974;2023-11-22T13:35:26;9.52;;;4.95;;
52512;SDS011;38422;53.172;6.974;2023-11-22T13:37:56;9.40;;;5.35;;
52512;SDS011;38422;53.172;6.974;2023-11-22T13:40:23;10.80;;;4.93;;
52512;SDS011;38422;53.172;6.974;2023-11-22T13:42:52;8.52;;;5.20;;
52512;SDS011;38422;53.172;6.974;2023-11-22T13:45:18;10.02;;;4.80;;
52512;SDS011;38422;53.172;6.974;2023-11-22T13:47:45;9.30;;;5.15;;
52512;SDS011;38422;53.172;6.974;2023-11-22T13:50:18;8.23;;;4.68;;
52512;SDS011;38422;53.172;6.974;2023-11-22T13:52:53;9.70;;;5.70;;
52512;SDS011;38422;53.172;6.974;2023-11-22T13:55:20;11.10;;;5.80;;
52512;SDS011;38422;53.172;6.974;2023-11-22T13:57:50;10.38;;;5.15;;
52512;SDS011;38422;53.172;6.974;2023-11-22T14:00:17;10.30;;;5.55;;
52512;SDS011;38422;53.172;6.974;2023-11-22T14:05:11;9.52;;;4.70;;
52512;SDS011;38422;53.172;6.974;2023-11-22T14:07:37;11.15;;;5.35;;
52512;SDS011;38422;53.172;6.974;2023-11-22T14:10:03;9.68;;;5.32;;
52512;SDS011;38422;53.172;6.974;2023-11-22T14:12:30;12.35;;;5.30;;
52512;SDS011;38422;53.172;6.974;2023-11-22T14:14:57;7.97;;;4.70;;
52512;SDS011;38422;53.172;6.974;2023-11-22T14:17:29;9.00;;;4.93;;
52512;SDS011;38422;53.172;6.974;2023-11-22T14:19:55;8.60;;;4.68;;
52512;SDS011;38422;53.172;6.974;2023-11-22T14:22:22;9.10;;;5.00;;
52512;SDS011;38422;53.172;6.974;2023-11-22T14:24:48;9.82;;;5.43;;
52512;SDS011;38422;53.172;6.974;2023-11-22T14:29:41;9.13;;;5.10;;
52512;SDS011;38422;53.172;6.974;2023-11-22T14:32:07;9.75;;;5.47;;
52512;SDS011;38422;53.172;6.974;2023-11-22T14:34:33;10.07;;;5.22;;
52512;SDS011;38422;53.172;6.974;2023-11-22T14:36:59;8.20;;;5.10;;
52512;SDS011;38422;53.172;6.974;2023-11-22T14:39:24;9.73;;;5.47;;
52512;SDS011;38422;53.172;6.974;2023-11-22T14:41:51;10.27;;;5.22;;
52512;SDS011;38422;53.172;6.974;2023-11-22T14:44:19;9.52;;;5.00;;
52512;SDS011;38422;53.172;6.974;2023-11-22T14:46:45;10.30;;;5.28;;
52512;SDS011;38422;53.172;6.974;2023-11-22T14:49:11;9.52;;;5.78;;